createdAt,value
2023-01-07T00:02:18.612Z,98679.69
2023-01-07T00:04:44.969Z,98672.69
2023-01-07T00:07:12.000Z,98676.34
2023-01-07T00:09:38.416Z,98686.19
2023-01-07T00:12:04.867Z,98684.34
2023-01-07T00:14:31.176Z,98683.31
2023-01-07T00:16:57.803Z,98673.69
2023-01-07T00:19:24.116Z,98676.19
2023-01-07T00:21:50.392Z,98677.38
2023-01-07T00:24:18.353Z,98679.22
2023-01-07T00:26:44.907Z,98673.47
2023-01-07T00:29:11.270Z,98674.69
2023-01-07T00:31:39.761Z,98663.22
2023-01-07T00:34:07.013Z,98664.03
2023-01-07T00:36:44.678Z,98658.09
2023-01-07T00:39:16.816Z,98658.09
2023-01-07T00:41:43.372Z,98664.03
2023-01-07T00:44:09.865Z,98663.22
2023-01-07T00:46:36.326Z,98661.78
2023-01-07T00:49:02.696Z,98665.25
2023-01-07T00:51:29.135Z,98659.72
2023-01-07T00:53:55.417Z,98657.50
2023-01-07T00:56:21.860Z,98650.94
2023-01-07T00:58:48.298Z,98661.59
2023-01-07T01:01:14.724Z,98660.97
2023-01-07T01:03:41.175Z,98656.25
2023-01-07T01:06:16.089Z,98658.69
2023-01-07T01:08:44.616Z,98649.69
2023-01-07T01:11:12.222Z,98652.16
2023-01-07T01:16:13.980Z,98664.03
2023-01-07T01:18:40.592Z,98649.50
2023-01-07T01:21:09.451Z,98650.75
2023-01-07T01:23:35.977Z,98654.69
2023-01-07T01:26:04.373Z,98649.97
2023-01-07T01:28:31.073Z,98657.56
2023-01-07T01:30:57.642Z,98653.41
2023-01-07T01:33:23.953Z,98645.44
2023-01-07T01:35:50.297Z,98660.38
2023-01-07T01:38:16.601Z,98651.38
2023-01-07T01:40:42.909Z,98647.72
2023-01-07T01:43:35.430Z,98643.59
2023-01-07T01:46:05.880Z,98646.22
2023-01-07T01:48:35.604Z,98638.63
2023-01-07T01:51:03.309Z,98637.81
2023-01-07T01:53:33.987Z,98640.91
2023-01-07T01:56:10.716Z,98638.03
2023-01-07T01:58:47.960Z,98630.44
2023-01-07T02:01:14.876Z,98627.78
2023-01-07T02:03:41.370Z,98623.28
2023-01-07T02:06:18.264Z,98620.63
2023-01-07T02:08:44.548Z,98615.50
2023-01-07T02:11:41.293Z,98616.31
2023-01-07T02:14:19.880Z,98624.31
2023-01-07T02:17:07.692Z,98617.13
2023-01-07T02:19:58.891Z,98620.81
2023-01-07T02:22:49.954Z,98616.31
2023-01-07T02:25:47.869Z,98617.97
2023-01-07T02:28:14.091Z,98615.69
2023-01-07T02:31:18.047Z,98620.59
2023-01-07T02:34:03.226Z,98618.47
2023-01-07T02:36:50.908Z,98612.09
2023-01-07T02:39:36.130Z,98610.28
2023-01-07T02:42:43.474Z,98606.38
2023-01-07T02:45:17.982Z,98600.03
2023-01-07T02:47:50.906Z,98596.34
2023-01-07T02:50:17.226Z,98593.28
2023-01-07T02:52:43.605Z,98589.41
2023-01-07T02:55:26.327Z,98583.25
2023-01-07T02:58:19.453Z,98591.25
2023-01-07T03:01:01.436Z,98586.75
2023-01-07T03:03:46.754Z,98590.03
2023-01-07T03:06:34.655Z,98585.72
2023-01-07T03:09:30.184Z,98577.34
2023-01-07T03:12:10.286Z,98576.97
2023-01-07T03:15:01.260Z,98575.53
2023-01-07T03:17:36.905Z,98576.75
2023-01-07T03:20:04.161Z,98573.28
2023-01-07T03:22:33.279Z,98573.47
2023-01-07T03:25:01.488Z,98566.69
2023-01-07T03:27:33.001Z,98570.56
2023-01-07T03:30:02.331Z,98561.53
2023-01-07T03:32:41.954Z,98568.47
2023-01-07T03:35:09.140Z,98555.56
2023-01-07T03:37:35.437Z,98559.47
2023-01-07T03:40:04.167Z,98552.50
2023-01-07T03:42:30.995Z,98556.41
2023-01-07T03:44:58.201Z,98553.34
2023-01-07T03:47:27.063Z,98547.78
2023-01-07T03:49:53.363Z,98547.53
2023-01-07T03:52:19.678Z,98550.03
2023-01-07T03:54:45.967Z,98548.81
2023-01-07T03:57:12.376Z,98540.44
2023-01-07T03:59:38.675Z,98548.63
2023-01-07T04:02:05.125Z,98546.16
2023-01-07T04:04:31.531Z,98540.63
2023-01-07T04:06:57.932Z,98532.44
2023-01-07T04:09:24.200Z,98531.84
2023-01-07T04:11:50.597Z,98525.72
2023-01-07T04:14:16.962Z,98522.22
2023-01-07T04:16:43.399Z,98524.06
2023-01-07T04:19:09.756Z,98521.19
2023-01-07T04:21:36.201Z,98516.44
2023-01-07T04:24:02.595Z,98508.44
2023-01-07T04:26:28.897Z,98515.59
2023-01-07T04:28:55.289Z,98510.50
2023-01-07T04:31:21.596Z,98507.84
2023-01-07T04:33:47.862Z,98506.41
2023-01-07T04:36:14.244Z,98504.56
2023-01-07T04:38:40.529Z,98497.19
2023-01-07T04:41:06.940Z,98500.66
2023-01-07T04:43:33.338Z,98491.88
2023-01-07T04:45:59.640Z,98488.16
2023-01-07T04:48:26.000Z,98490.00
2023-01-07T04:50:52.379Z,98491.84
2023-01-07T04:53:18.675Z,98488.38
2023-01-07T04:55:46.396Z,98488.16
2023-01-07T04:58:12.859Z,98478.16
2023-01-07T05:00:39.163Z,98477.94
2023-01-07T05:03:05.592Z,98481.03
2023-01-07T05:05:31.987Z,98471.19
2023-01-07T05:07:58.250Z,98477.16
2023-01-07T05:10:24.695Z,98475.34
2023-01-07T05:12:50.970Z,98465.72
2023-01-07T05:15:17.255Z,98467.34
2023-01-07T05:17:43.665Z,98462.84
2023-01-07T05:20:10.335Z,98451.97
2023-01-07T05:22:36.826Z,98456.03
2023-01-07T05:25:03.562Z,98453.59
2023-01-07T05:27:29.940Z,98444.78
2023-01-07T05:29:56.216Z,98442.94
2023-01-07T05:32:22.520Z,98449.28
2023-01-07T05:34:48.902Z,98442.13
2023-01-07T05:37:15.312Z,98446.63
2023-01-07T05:39:41.596Z,98438.44
2023-01-07T05:42:07.907Z,98442.75
2023-01-07T05:44:34.297Z,98441.72
2023-01-07T05:47:00.609Z,98437.84
2023-01-07T05:49:27.015Z,98442.97
2023-01-07T05:51:53.330Z,98448.28
2023-01-07T05:54:19.599Z,98447.47
2023-01-07T05:56:45.977Z,98437.00
2023-01-07T05:59:12.367Z,98435.38
2023-01-07T06:01:38.757Z,98426.56
2023-01-07T06:04:05.178Z,98439.81
2023-01-07T06:06:31.599Z,98429.16
2023-01-07T06:08:57.903Z,98430.59
2023-01-07T06:11:24.209Z,98425.66
2023-01-07T06:13:50.583Z,98418.91
2023-01-07T06:16:17.027Z,98419.72
2023-01-07T06:18:43.390Z,98424.66
2023-01-07T06:21:09.692Z,98420.75
2023-01-07T06:23:36.066Z,98421.78
2023-01-07T06:26:02.777Z,98420.75
2023-01-07T06:28:29.067Z,98421.78
2023-01-07T06:30:55.531Z,98416.88
2023-01-07T06:33:22.021Z,98411.75
2023-01-07T06:35:48.323Z,98407.06
2023-01-07T06:38:14.666Z,98407.66
2023-01-07T06:40:41.177Z,98408.06
2023-01-07T06:43:07.473Z,98401.31
2023-01-07T06:45:33.787Z,98403.16
2023-01-07T06:48:00.140Z,98398.44
2023-01-07T06:50:26.440Z,98394.56
2023-01-07T06:52:52.914Z,98396.84
2023-01-07T06:55:19.193Z,98394.78
2023-01-07T06:57:45.624Z,98390.91
2023-01-07T07:00:12.810Z,98394.22
2023-01-07T07:02:39.172Z,98394.38
2023-01-07T07:05:05.848Z,98395.41
2023-01-07T07:07:32.241Z,98397.03
2023-01-07T07:09:58.531Z,98398.25
2023-01-07T07:12:24.853Z,98390.69
2023-01-07T07:14:51.126Z,98379.84
2023-01-07T07:17:17.522Z,98388.44
2023-01-07T07:19:43.800Z,98386.41
2023-01-07T07:22:10.228Z,98393.78
2023-01-07T07:24:36.547Z,98386.44
2023-01-07T07:27:02.863Z,98382.31
2023-01-07T07:29:29.182Z,98371.66
2023-01-07T07:31:55.458Z,98379.44
2023-01-07T07:34:21.788Z,98376.63
2023-01-07T07:36:48.071Z,98373.56
2023-01-07T07:39:14.539Z,98379.28
2023-01-07T07:41:40.953Z,98371.47
2023-01-07T07:44:07.253Z,98372.69
2023-01-07T07:46:33.595Z,98374.94
2023-01-07T07:48:59.886Z,98369.63
2023-01-07T07:51:26.355Z,98364.09
2023-01-07T07:53:52.777Z,98363.91
2023-01-07T07:56:19.161Z,98362.06
2023-01-07T07:58:45.434Z,98364.50
2023-01-07T08:01:11.897Z,98362.50
2023-01-07T08:03:38.237Z,98364.13
2023-01-07T08:06:04.859Z,98351.47
2023-01-07T08:08:31.513Z,98361.28
2023-01-07T08:10:57.825Z,98352.69
2023-01-07T08:13:24.286Z,98349.22
2023-01-07T08:15:50.627Z,98354.13
2023-01-07T08:18:17.285Z,98343.50
2023-01-07T08:20:43.570Z,98341.44
2023-01-07T08:23:09.928Z,98348.63
2023-01-07T08:25:36.576Z,98344.97
2023-01-07T08:28:03.542Z,98330.22
2023-01-07T08:30:30.676Z,98335.34
2023-01-07T08:32:57.558Z,98336.34
2023-01-07T08:35:23.932Z,98329.81
2023-01-07T08:37:50.207Z,98327.97
2023-01-07T08:40:16.580Z,98323.44
2023-01-07T08:42:42.894Z,98322.47
2023-01-07T08:45:10.709Z,98315.09
2023-01-07T08:47:37.113Z,98314.06
2023-01-07T08:50:04.604Z,98314.25
2023-01-07T08:52:30.839Z,98315.47
2023-01-07T08:54:57.131Z,98316.31
2023-01-07T08:57:23.577Z,98311.00
2023-01-07T08:59:49.878Z,98308.13
2023-01-07T09:02:18.749Z,98310.38
2023-01-07T09:04:45.524Z,98313.03
2023-01-07T09:07:12.162Z,98311.59
2023-01-07T09:09:38.739Z,98302.97
2023-01-07T09:12:06.281Z,98300.09
2023-01-07T09:14:32.496Z,98301.34
2023-01-07T09:16:58.810Z,98300.31
2023-01-07T09:19:25.110Z,98297.06
2023-01-07T09:21:51.439Z,98300.94
2023-01-07T09:24:17.948Z,98299.28
2023-01-07T09:26:44.242Z,98298.88
2023-01-07T09:29:10.756Z,98300.28
2023-01-07T09:31:37.117Z,98301.09
2023-01-07T09:34:03.447Z,98295.78
2023-01-07T09:36:29.852Z,98300.69
2023-01-07T09:38:56.129Z,98295.75
2023-01-07T09:41:44.344Z,98302.13
2023-01-07T09:44:33.245Z,98298.84
2023-01-07T09:47:00.303Z,98297.41
2023-01-07T09:49:30.459Z,98299.88
2023-01-07T09:52:06.911Z,98290.06
2023-01-07T09:54:36.295Z,98294.34
2023-01-07T09:57:03.912Z,98303.75
2023-01-07T09:59:30.632Z,98292.03
2023-01-07T10:02:52.577Z,98289.34
2023-01-07T10:05:39.261Z,98284.25
2023-01-07T10:08:31.001Z,98288.13
2023-01-07T10:10:58.613Z,98276.44
2023-01-07T10:13:52.454Z,98275.81
2023-01-07T10:16:21.556Z,98259.84
2023-01-07T10:19:25.775Z,98264.34
2023-01-07T10:21:57.402Z,98251.84
2023-01-07T10:24:32.276Z,98250.81
2023-01-07T10:27:03.178Z,98247.47
2023-01-07T10:29:37.376Z,98241.91
2023-01-07T10:32:13.265Z,98226.50
2023-01-07T10:34:44.660Z,98230.94
2023-01-07T10:37:21.567Z,98220.19
2023-01-07T10:40:12.435Z,98219.69
2023-01-07T10:42:55.046Z,98213.63
2023-01-07T10:45:34.148Z,98212.38
2023-01-07T10:48:18.925Z,98206.06
2023-01-07T10:51:09.010Z,98196.81
2023-01-07T10:53:57.670Z,98194.88
2023-01-07T10:56:31.023Z,98195.06
2023-01-07T10:58:58.038Z,98196.72
2023-01-07T11:01:31.205Z,98189.81
2023-01-07T11:03:59.249Z,98186.44
2023-01-07T11:06:38.429Z,98183.25
2023-01-07T11:09:09.078Z,98182.16
2023-01-07T11:11:36.876Z,98181.72
2023-01-07T11:14:11.501Z,98178.75
2023-01-07T11:16:43.789Z,98175.34
2023-01-07T11:19:12.051Z,98168.28
2023-01-07T11:21:47.296Z,98164.13
2023-01-07T11:24:19.544Z,98159.88
2023-01-07T11:26:46.659Z,98152.09
2023-01-07T11:29:35.007Z,98150.25
2023-01-07T11:32:01.839Z,98148.78
2023-01-07T11:34:53.506Z,98149.50
2023-01-07T11:37:39.868Z,98146.56
2023-01-07T11:40:28.150Z,98134.84
2023-01-07T11:42:57.403Z,98126.81
2023-01-07T11:45:37.010Z,98123.63
2023-01-07T11:48:06.073Z,98122.06
2023-01-07T11:50:41.531Z,98123.50
2023-01-07T11:53:13.904Z,98115.19
2023-01-07T11:55:58.016Z,98110.47
2023-01-07T11:58:30.800Z,98100.38
2023-01-07T12:01:24.391Z,98092.69
2023-01-07T12:03:53.888Z,98094.09
2023-01-07T12:06:27.033Z,98087.59
2023-01-07T12:09:03.061Z,98079.00
2023-01-07T12:11:39.903Z,98083.41
2023-01-07T12:14:09.434Z,98083.50
2023-01-07T12:16:36.189Z,98082.97
2023-01-07T12:19:18.057Z,98082.84
2023-01-07T12:21:54.297Z,98080.16
2023-01-07T12:24:36.174Z,98073.53
2023-01-07T12:27:22.532Z,98068.44
2023-01-07T12:30:07.394Z,98071.44
2023-01-07T12:33:01.615Z,98070.97
2023-01-07T12:35:31.766Z,98071.06
2023-01-07T12:38:11.294Z,98067.66
2023-01-07T12:40:49.080Z,98059.84
2023-01-07T12:43:23.276Z,98065.44
2023-01-07T12:45:56.213Z,98064.22
2023-01-07T12:48:40.943Z,98056.44
2023-01-07T12:51:15.233Z,98058.66
2023-01-07T12:53:53.648Z,98049.59
2023-01-07T12:56:26.443Z,98050.53
2023-01-07T12:59:01.753Z,98049.25
2023-01-07T13:01:40.953Z,98040.53
2023-01-07T13:04:33.883Z,98034.97
2023-01-07T13:07:11.542Z,98031.47
2023-01-07T13:09:59.596Z,98024.28
2023-01-07T13:12:40.745Z,98022.22
2023-01-07T13:15:30.799Z,98009.84
2023-01-07T13:18:02.594Z,98009.75
2023-01-07T13:20:43.516Z,98001.59
2023-01-07T13:23:54.761Z,97998.41
2023-01-07T13:26:56.869Z,97986.31
2023-01-07T13:29:41.597Z,97987.41
2023-01-07T13:32:15.191Z,97979.50
2023-01-07T13:35:13.069Z,97977.75
2023-01-07T13:37:58.300Z,97971.47
2023-01-07T13:40:47.254Z,97973.47
2023-01-07T13:43:50.452Z,97971.97
2023-01-07T13:46:20.266Z,97970.47
2023-01-07T13:48:51.974Z,97970.25
2023-01-07T13:51:29.049Z,97959.22
2023-01-07T13:53:55.810Z,97952.97
2023-01-07T13:56:22.099Z,97957.88
2023-01-07T13:58:50.875Z,97960.84
2023-01-07T14:01:21.790Z,97953.53
2023-01-07T14:04:03.229Z,97956.88
2023-01-07T14:06:29.484Z,97962.66
2023-01-07T14:08:59.068Z,97961.53
2023-01-07T14:11:31.333Z,97960.28
2023-01-07T14:14:14.587Z,97955.16
2023-01-07T14:16:47.832Z,97957.56
2023-01-07T14:19:32.993Z,97947.94
2023-01-07T14:22:05.302Z,97954.75
2023-01-07T14:25:00.652Z,97948.00
2023-01-07T14:27:45.625Z,97959.31
2023-01-07T14:30:23.338Z,97956.28
2023-01-07T14:32:59.869Z,97955.47
2023-01-07T14:35:36.382Z,97956.88
2023-01-07T14:38:31.587Z,97950.13
2023-01-07T14:41:04.070Z,97960.22
2023-01-07T14:43:42.475Z,97947.34
2023-01-07T14:46:09.442Z,97954.75
2023-01-07T14:48:37.070Z,97947.19
2023-01-07T14:51:25.897Z,97950.91
2023-01-07T14:54:05.688Z,97943.78
2023-01-07T14:56:58.962Z,97941.75
2023-01-07T15:00:07.537Z,97951.09
2023-01-07T15:03:15.657Z,97945.00
2023-01-07T15:05:58.176Z,97942.38
2023-01-07T15:08:28.074Z,97943.63
2023-01-07T15:10:58.411Z,97947.16
2023-01-07T15:13:25.644Z,97944.56
2023-01-07T15:15:55.260Z,97946.25
2023-01-07T15:18:21.986Z,97943.03
2023-01-07T15:21:19.358Z,97942.28
2023-01-07T15:24:16.240Z,97940.31
2023-01-07T15:26:57.490Z,97942.06
2023-01-07T15:29:54.806Z,97946.22
2023-01-07T15:32:31.129Z,97938.94
2023-01-07T15:34:58.021Z,97938.56
2023-01-07T15:37:24.491Z,97934.09
2023-01-07T15:39:58.691Z,97933.13
2023-01-07T15:42:27.175Z,97932.13
2023-01-07T15:44:56.217Z,97938.50
2023-01-07T15:47:35.532Z,97935.50
2023-01-07T15:50:30.735Z,97937.97
2023-01-07T15:53:12.261Z,97932.72
2023-01-07T15:55:49.119Z,97929.69
2023-01-07T15:58:20.032Z,97934.63
2023-01-07T16:00:52.018Z,97938.53
2023-01-07T16:03:20.240Z,97943.22
2023-01-07T16:05:47.496Z,97951.22
2023-01-07T16:08:26.943Z,97948.78
2023-01-07T16:11:05.465Z,97950.41
2023-01-07T16:13:32.916Z,97949.44
2023-01-07T16:16:01.110Z,97947.97
2023-01-07T16:18:27.555Z,97947.59
2023-01-07T16:21:04.014Z,97948.59
2023-01-07T16:23:32.461Z,97945.94
2023-01-07T16:26:14.587Z,97935.94
2023-01-07T16:28:51.737Z,97933.06
2023-01-07T16:31:22.142Z,97929.97
2023-01-07T16:33:51.624Z,97934.47
2023-01-07T16:36:22.301Z,97942.41
2023-01-07T16:38:52.897Z,97943.03
2023-01-07T16:41:22.590Z,97941.78
2023-01-07T16:43:51.180Z,97937.88
2023-01-07T16:46:26.940Z,97939.31
2023-01-07T16:49:11.678Z,97943.59
2023-01-07T16:51:51.956Z,97940.09
2023-01-07T16:54:21.981Z,97935.16
2023-01-07T16:56:54.393Z,97936.78
2023-01-07T16:59:24.343Z,97930.03
2023-01-07T17:01:50.887Z,97924.69
2023-01-07T17:04:24.738Z,97925.66
2023-01-07T17:06:51.593Z,97928.50
2023-01-07T17:09:25.632Z,97924.56
2023-01-07T17:11:53.149Z,97924.34
2023-01-07T17:14:34.517Z,97916.81
2023-01-07T17:17:06.245Z,97902.31
2023-01-07T17:19:38.907Z,97900.88
2023-01-07T17:22:27.915Z,97904.13
2023-01-07T17:25:03.367Z,97900.41
2023-01-07T17:27:31.192Z,97907.09
2023-01-07T17:30:01.816Z,97909.53
2023-01-07T17:32:28.222Z,97906.03
2023-01-07T17:34:54.585Z,97899.50
2023-01-07T17:37:20.969Z,97900.59
2023-01-07T17:39:47.522Z,97894.28
2023-01-07T17:42:23.511Z,97898.72
2023-01-07T17:44:49.831Z,97892.13
2023-01-07T17:47:16.191Z,97896.19
2023-01-07T17:49:42.483Z,97899.22
2023-01-07T17:52:09.517Z,97901.25
2023-01-07T17:54:35.892Z,97908.94
2023-01-07T17:57:02.186Z,97908.94
2023-01-07T17:59:28.947Z,97911.63
2023-01-07T18:01:56.697Z,97912.69
2023-01-07T18:04:23.282Z,97920.44
2023-01-07T18:06:49.631Z,97918.78
2023-01-07T18:09:15.965Z,97913.88
2023-01-07T18:11:45.169Z,97913.84
2023-01-07T18:14:15.324Z,97919.28
2023-01-07T18:16:41.940Z,97908.19
2023-01-07T18:19:12.577Z,97912.19
2023-01-07T18:21:39.049Z,97908.81
2023-01-07T18:24:05.934Z,97905.50
2023-01-07T18:26:32.319Z,97904.88
2023-01-07T18:28:58.646Z,97899.34
2023-01-07T18:31:24.995Z,97897.63
2023-01-07T18:33:51.389Z,97904.09
2023-01-07T18:36:17.818Z,97900.63
2023-01-07T18:38:44.453Z,97887.63
2023-01-07T18:41:10.929Z,97894.09
2023-01-07T18:43:37.227Z,97888.00
2023-01-07T18:46:08.266Z,97891.44
2023-01-07T18:48:34.668Z,97891.44
2023-01-07T18:51:00.960Z,97894.28
2023-01-07T18:53:27.288Z,97891.84
2023-01-07T18:55:59.280Z,97894.03
2023-01-07T18:58:25.668Z,97893.41
2023-01-07T19:00:52.235Z,97893.59
2023-01-07T19:03:18.694Z,97891.78
2023-01-07T19:05:45.018Z,97887.31
2023-01-07T19:08:11.421Z,97893.59
2023-01-07T19:10:41.186Z,97899.88
2023-01-07T19:13:07.498Z,97893.13
2023-01-07T19:15:33.810Z,97894.94
2023-01-07T19:18:00.203Z,97891.66
2023-01-07T19:20:26.551Z,97900.59
2023-01-07T19:22:52.854Z,97892.06
2023-01-07T19:25:19.190Z,97893.06
2023-01-07T19:27:45.503Z,97896.69
2023-01-07T19:30:12.231Z,97886.50
2023-01-07T19:32:38.547Z,97884.44
2023-01-07T19:35:05.359Z,97883.38
2023-01-07T19:37:31.660Z,97881.88
2023-01-07T19:39:57.992Z,97884.91
2023-01-07T19:42:24.349Z,97875.16
2023-01-07T19:44:50.650Z,97880.09
2023-01-07T19:47:17.067Z,97880.25
2023-01-07T19:49:43.388Z,97878.28
2023-01-07T19:52:09.709Z,97879.91
2023-01-07T19:54:36.059Z,97874.44
2023-01-07T19:57:02.452Z,97873.44
2023-01-07T19:59:28.767Z,97864.06
2023-01-07T20:01:55.195Z,97862.78
2023-01-07T20:04:21.700Z,97852.22
2023-01-07T20:06:48.112Z,97848.56
2023-01-07T20:09:14.410Z,97849.75
2023-01-07T20:11:41.276Z,97841.66
2023-01-07T20:14:07.585Z,97845.75
2023-01-07T20:16:34.495Z,97841.09
2023-01-07T20:19:00.959Z,97841.94
2023-01-07T20:21:28.431Z,97844.38
2023-01-07T20:23:55.054Z,97841.09
2023-01-07T20:26:24.308Z,97835.00
2023-01-07T20:28:50.877Z,97829.06
2023-01-07T20:31:18.736Z,97829.44
2023-01-07T20:33:45.359Z,97839.00
2023-01-07T20:36:14.524Z,97838.81
2023-01-07T20:38:42.144Z,97831.91
2023-01-07T20:41:12.117Z,97838.19
2023-01-07T20:43:38.418Z,97830.25
2023-01-07T20:46:07.803Z,97836.38
2023-01-07T20:48:34.991Z,97833.28
2023-01-07T20:51:08.842Z,97821.91
2023-01-07T20:53:36.668Z,97812.34
2023-01-07T20:56:04.179Z,97801.16
2023-01-07T20:58:32.203Z,97804.16
2023-01-07T21:01:02.812Z,97811.09
2023-01-07T21:03:29.345Z,97804.34
2023-01-07T21:05:56.833Z,97809.63
2023-01-07T21:08:23.632Z,97808.81
2023-01-07T21:10:50.258Z,97805.38
2023-01-07T21:13:16.545Z,97803.72
2023-01-07T21:15:42.835Z,97807.56
2023-01-07T21:18:09.154Z,97807.94
2023-01-07T21:20:35.457Z,97805.13
2023-01-07T21:23:01.853Z,97800.84
2023-01-07T21:25:28.146Z,97791.28
2023-01-07T21:27:54.417Z,97802.66
2023-01-07T21:30:20.718Z,97802.66
2023-01-07T21:32:47.039Z,97795.91
2023-01-07T21:35:13.857Z,97799.56
2023-01-07T21:37:40.270Z,97794.28
2023-01-07T21:40:07.885Z,97800.56
2023-01-07T21:42:35.321Z,97802.19
2023-01-07T21:45:01.804Z,97805.00
2023-01-07T21:47:28.178Z,97801.56
2023-01-07T21:49:54.480Z,97803.38
2023-01-07T21:52:20.784Z,97787.91
2023-01-07T21:54:47.129Z,97782.19
2023-01-07T21:57:13.532Z,97794.94
2023-01-07T21:59:39.809Z,97791.69
2023-01-07T22:02:06.256Z,97797.59
2023-01-07T22:04:32.637Z,97793.50
2023-01-07T22:06:58.952Z,97794.50
2023-01-07T22:09:25.251Z,97788.59
2023-01-07T22:11:51.632Z,97788.78
2023-01-07T22:14:18.841Z,97794.41
2023-01-07T22:16:47.517Z,97801.34
2023-01-07T22:19:15.426Z,97801.34
2023-01-07T22:21:41.738Z,97800.50
2023-01-07T22:24:08.751Z,97805.97
2023-01-07T22:26:35.184Z,97799.63
2023-01-07T22:29:06.231Z,97786.78
2023-01-07T22:31:34.507Z,97789.44
2023-01-07T22:34:00.846Z,97791.63
2023-01-07T22:36:45.351Z,97794.63
2023-01-07T22:39:26.424Z,97799.47
2023-01-07T22:41:56.254Z,97795.19
2023-01-07T22:44:35.157Z,97796.19
2023-01-07T22:47:03.271Z,97789.09
2023-01-07T22:49:31.203Z,97788.09
2023-01-07T22:51:57.502Z,97795.38
2023-01-07T22:54:25.748Z,97792.91
2023-01-07T22:56:52.139Z,97786.78
2023-01-07T22:59:18.592Z,97780.72
2023-01-07T23:01:44.870Z,97773.53
2023-01-07T23:04:11.193Z,97767.81
2023-01-07T23:06:37.638Z,97768.81
2023-01-07T23:09:04.138Z,97764.09
2023-01-07T23:11:31.907Z,97770.56
2023-01-07T23:13:58.311Z,97770.25
2023-01-07T23:16:24.720Z,97763.53
2023-01-07T23:18:51.025Z,97762.72
2023-01-07T23:21:17.414Z,97755.00
2023-01-07T23:23:43.722Z,97748.28
2023-01-07T23:26:13.943Z,97748.81
2023-01-07T23:28:40.693Z,97736.19
2023-01-07T23:31:07.409Z,97733.09
2023-01-07T23:33:33.726Z,97725.38
2023-01-07T23:36:05.317Z,97718.00
2023-01-07T23:38:32.008Z,97723.28
2023-01-07T23:41:01.786Z,97728.53
2023-01-07T23:43:28.237Z,97727.53
2023-01-07T23:45:57.207Z,97723.09
2023-01-07T23:48:25.069Z,97724.72
2023-01-07T23:50:52.031Z,97714.91
2023-01-07T23:53:18.379Z,97712.47
2023-01-07T23:55:55.307Z,97717.91
2023-01-07T23:58:23.485Z,97710.00
